ADDS METAR Data INFO
IDs: Format: Raw Decoded Include TAF

Data at: 0918 UTC 13 Dec 2017

KGLS 130852Z AUTO 32004KT 10SM CLR 09/04 A3020 RMK AO2 SLP228 T00940044 58012
KGLS 130752Z AUTO 00000KT 10SM CLR 08/04 A3022 RMK AO2 SLP233 T00830039
KGLS 130652Z AUTO 33006KT 10SM CLR 10/03 A3023 RMK AO2 SLP236 T01000033
KGLS 130552Z AUTO 33006KT 10SM CLR 11/03 A3024 RMK AO2 SLP240 T01060033 10139 20100 401720100 58004
KGLS 130452Z AUTO 32006KT 10SM CLR 11/04 A3025 RMK AO2 SLP245 T01060044
KGLS 130352Z AUTO 33007KT 10SM CLR 11/04 A3025 RMK AO2 SLP244 T01110044
KGLS 130252Z AUTO 34004KT 10SM CLR 12/07 A3025 RMK AO2 SLP244 T01220067 50008
KGLS 130152Z AUTO 35007KT 10SM CLR 12/06 A3025 RMK AO2 SLP244 T01220056
KGLS 130052Z AUTO 35009KT 10SM CLR 14/05 A3024 RMK AO2 SLP241 T01390050
KGLS 122352Z 36007KT 10SM CLR 14/06 A3023 RMK AO2 SLP235 T01390056 10172 20139 55001
KGLS 122252Z 36009KT 10SM CLR 16/03 A3022 RMK AO2 SLP234 T01610028
KGLS 122152Z 36010KT 10SM CLR 17/04 A3022 RMK AO2 SLP234 T01720039
KGLS 122052Z 02008KT 10SM CLR 17/03 A3023 RMK AO2 SLP237 T01720033 56021
KGLS 121952Z 01011KT 10SM CLR 17/03 A3024 RMK AO2 SLP241 T01670033
KGLS 121852Z 36013KT 10SM CLR 17/03 A3026 RMK AO2 SLP247 T01670028
KGLS 121752Z 36016KT 10SM CLR 16/03 A3029 RMK AO2 SLP258 T01610033 10161 20128 58002
KGLS 121652Z 36018G23KT 10SM CLR 15/04 A3031 RMK AO2 SLP262 T01500039
KGLS 121552Z 35016KT 10SM CLR 14/03 A3031 RMK AO2 SLP263 T01440033
KGLS 121452Z 35017KT 10SM CLR 14/04 A3030 RMK AO2 SLP259 T01440039 51022
KGLS 121352Z 36013KT 10SM CLR 13/05 A3028 RMK AO2 SLP253 T01330050
KGLS 121252Z 36014KT 10SM CLR 13/06 A3025 RMK AO2 SLP244 T01280056
KGLS 121152Z 34014KT 10SM CLR 13/06 A3023 RMK AO2 SLP237 T01330056 10139 20106 53016
KGLS 121052Z AUTO 29007KT 10SM CLR 11/07 A3021 RMK AO2 SLP230 T01110067
KGLS 120952Z AUTO 28009KT 10SM CLR 11/08 A3020 RMK AO2 SLP225 T01110078
KGLS 120852Z AUTO 25005KT 10SM CLR 12/08 A3019 RMK AO2 SLP222 T01170083 56003
KGLS 120752Z AUTO 24005KT 10SM CLR 12/09 A3019 RMK AO2 SLP222 T01170089
KGLS 120652Z AUTO 25007KT 10SM CLR 13/09 A3019 RMK AO2 SLP221 T01330094
KGLS 120552Z AUTO 24008KT 10SM CLR 14/10 A3019 RMK AO2 SLP224 T01390100 10161 20133 402000072 58003
KGLS 120452Z AUTO 24007KT 10SM CLR 13/11 A3020 RMK AO2 SLP225 T01330106
KGLS 120352Z AUTO 24006KT 10SM CLR 14/10 A3021 RMK AO2 SLP229 T01390100
KGLS 120252Z AUTO 23007KT 10SM CLR 14/10 A3020 RMK AO2 SLP227 T01440100 50004
KGLS 120152Z AUTO 24008KT 10SM CLR 15/11 A3021 RMK AO2 SLP230 T01500106
KGLS 120052Z AUTO 22009KT 10SM CLR 16/13 A3020 RMK AO2 SLP226 T01610133
KGLS 112352Z AUTO 21008KT 10SM CLR 16/13 A3019 RMK AO2 SLP223 T01610128 10200 20161 56005
KGLS 112252Z 21009KT 10SM CLR 17/12 A3019 RMK AO2 SLP223 T01720122
KGLS 112152Z 20009KT 10SM CLR 18/12 A3020 RMK AO2 SLP226 T01830117